createdAt,value
2018-05-27T00:01:44.595Z,95134.01
2018-05-27T00:04:12.162Z,95132.61
2018-05-27T00:06:39.966Z,95137.02
2018-05-27T00:09:07.472Z,95127.95
2018-05-27T00:11:34.984Z,95131.73
2018-05-27T00:14:02.488Z,95121.22
2018-05-27T00:16:30.004Z,95120.92
2018-05-27T00:18:57.552Z,95123.38
2018-05-27T00:21:25.058Z,95117.95
2018-05-27T00:23:52.586Z,95119.66
2018-05-27T00:26:20.109Z,95116.56
2018-05-27T00:28:47.642Z,95115.39
2018-05-27T00:31:15.156Z,95108.78
2018-05-27T00:33:42.671Z,95111.20
2018-05-27T00:36:10.170Z,95110.13
2018-05-27T00:38:37.682Z,95112.22
2018-05-27T00:41:05.263Z,95115.47
2018-05-27T00:43:32.772Z,95119.81
2018-05-27T00:46:00.286Z,95115.90
2018-05-27T00:48:27.839Z,95115.08
2018-05-27T00:50:55.351Z,95115.08
2018-05-27T00:53:34.674Z,95122.59
2018-05-27T00:56:02.319Z,95128.27
2018-05-27T00:58:29.846Z,95134.89
2018-05-27T01:00:57.351Z,95136.54
2018-05-27T01:03:24.847Z,95130.55
2018-05-27T01:05:52.356Z,95128.73
2018-05-27T01:08:19.868Z,95135.02
2018-05-27T01:10:47.377Z,95130.89
2018-05-27T01:13:14.931Z,95133.63
2018-05-27T01:15:42.433Z,95134.49
2018-05-27T01:18:09.979Z,95132.00
2018-05-27T01:20:37.479Z,95137.39
2018-05-27T01:23:05.008Z,95144.09
2018-05-27T01:25:32.559Z,95141.98
2018-05-27T01:28:00.083Z,95133.08
2018-05-27T01:30:27.647Z,95129.83
2018-05-27T01:32:55.155Z,95129.74
2018-05-27T01:35:22.653Z,95133.17
2018-05-27T01:37:50.157Z,95133.59
2018-05-27T01:40:17.657Z,95127.02
2018-05-27T01:42:45.215Z,95125.61
2018-05-27T01:45:12.719Z,95120.47
2018-05-27T01:47:40.238Z,95124.73
2018-05-27T01:50:07.768Z,95126.87
2018-05-27T01:52:35.287Z,95125.73
2018-05-27T01:55:03.007Z,95128.37
2018-05-27T01:57:31.367Z,95118.58
2018-05-27T01:59:58.863Z,95118.70
2018-05-27T02:02:26.374Z,95128.77
2018-05-27T02:04:53.884Z,95133.01
2018-05-27T02:07:21.388Z,95136.27
2018-05-27T02:09:48.931Z,95128.65
2018-05-27T02:12:16.467Z,95125.91
2018-05-27T02:14:44.042Z,95137.23
2018-05-27T02:17:11.568Z,95136.59
2018-05-27T02:19:39.078Z,95142.23
2018-05-27T02:22:06.602Z,95146.27
2018-05-27T02:24:34.115Z,95146.85
2018-05-27T02:27:01.682Z,95144.44
2018-05-27T02:29:29.195Z,95149.61
2018-05-27T02:31:56.708Z,95140.39
2018-05-27T02:34:24.221Z,95137.27
2018-05-27T02:36:51.785Z,95134.64
2018-05-27T02:39:19.303Z,95136.17
2018-05-27T02:41:46.800Z,95140.21
2018-05-27T02:44:14.380Z,95142.41
2018-05-27T02:46:41.894Z,95143.02
2018-05-27T02:49:09.403Z,95149.14
2018-05-27T02:51:36.902Z,95140.45
2018-05-27T02:54:04.421Z,95142.25
2018-05-27T02:56:31.923Z,95140.05
2018-05-27T02:58:59.425Z,95140.29
2018-05-27T03:01:26.964Z,95135.82
2018-05-27T03:03:54.465Z,95137.67
2018-05-27T03:06:21.993Z,95127.97
2018-05-27T03:08:49.504Z,95134.92
2018-05-27T03:11:17.004Z,95136.83
2018-05-27T03:13:44.511Z,95130.44
2018-05-27T03:16:12.041Z,95144.16
2018-05-27T03:18:39.534Z,95134.95
2018-05-27T03:21:07.044Z,95132.10
2018-05-27T03:23:34.550Z,95129.87
2018-05-27T03:26:02.053Z,95120.38
2018-05-27T03:28:29.566Z,95121.52
2018-05-27T03:30:57.092Z,95123.84
2018-05-27T03:33:24.599Z,95118.78
2018-05-27T03:35:52.219Z,95123.96
2018-05-27T03:38:19.727Z,95126.98
2018-05-27T03:40:47.245Z,95129.50
2018-05-27T03:43:14.736Z,95125.83
2018-05-27T03:45:42.249Z,95129.19
2018-05-27T03:48:09.781Z,95130.81
2018-05-27T03:50:37.286Z,95130.30
2018-05-27T03:53:04.835Z,95126.95
2018-05-27T03:55:32.344Z,95128.86
2018-05-27T03:57:59.872Z,95129.87
2018-05-27T04:00:27.396Z,95129.47
2018-05-27T04:02:54.900Z,95127.88
2018-05-27T04:05:34.155Z,95133.66
2018-05-27T04:08:13.473Z,95135.38
2018-05-27T04:10:40.989Z,95138.13
2018-05-27T04:13:08.560Z,95136.50
2018-05-27T04:15:36.067Z,95134.67
2018-05-27T04:18:03.591Z,95136.51
2018-05-27T04:20:31.098Z,95135.19
2018-05-27T04:22:58.611Z,95131.00
2018-05-27T04:25:26.118Z,95128.73
2018-05-27T04:27:53.651Z,95126.55
2018-05-27T04:30:21.204Z,95123.47
2018-05-27T04:32:48.715Z,95126.41
2018-05-27T04:35:16.240Z,95127.59
2018-05-27T04:37:43.776Z,95130.23
2018-05-27T04:40:11.299Z,95132.98
2018-05-27T04:42:38.862Z,95128.67
2018-05-27T04:45:06.396Z,95128.52
2018-05-27T04:47:33.946Z,95132.44
2018-05-27T04:50:01.517Z,95133.88
2018-05-27T04:52:29.052Z,95138.22
2018-05-27T04:54:56.618Z,95135.16
2018-05-27T04:57:24.115Z,95133.23
2018-05-27T04:59:51.638Z,95137.58
2018-05-27T05:02:19.145Z,95127.54
2018-05-27T05:04:46.688Z,95132.25
2018-05-27T05:07:14.213Z,95134.84
2018-05-27T05:09:41.730Z,95131.55
2018-05-27T05:12:09.259Z,95135.45
2018-05-27T05:14:36.832Z,95133.52
2018-05-27T05:17:04.344Z,95133.69
2018-05-27T05:19:31.879Z,95144.88
2018-05-27T05:21:59.397Z,95140.30
2018-05-27T05:24:26.903Z,95132.88
2018-05-27T05:26:54.414Z,95136.52
2018-05-27T05:29:21.934Z,95138.79
2018-05-27T05:31:49.490Z,95141.23
2018-05-27T05:34:17.076Z,95137.73
2018-05-27T05:36:44.596Z,95136.72
2018-05-27T05:39:12.360Z,95147.55
2018-05-27T05:41:39.857Z,95148.20
2018-05-27T05:44:07.385Z,95143.66
2018-05-27T05:46:34.924Z,95146.54
2018-05-27T05:49:02.485Z,95149.37
2018-05-27T05:51:30.024Z,95150.53
2018-05-27T05:53:57.540Z,95146.30
2018-05-27T05:56:25.062Z,95147.03
2018-05-27T05:58:52.615Z,95149.50
2018-05-27T06:01:20.137Z,95156.17
2018-05-27T06:03:47.659Z,95157.42
2018-05-27T06:06:16.515Z,95155.91
2018-05-27T06:08:44.028Z,95157.25
2018-05-27T06:11:11.550Z,95157.44
2018-05-27T06:13:39.119Z,95152.70
2018-05-27T06:16:06.601Z,95155.48
2018-05-27T06:18:34.159Z,95146.30
2018-05-27T06:21:01.689Z,95149.52
2018-05-27T06:23:29.200Z,95147.14
2018-05-27T06:25:56.709Z,95150.61
2018-05-27T06:28:24.267Z,95150.52
2018-05-27T06:30:51.796Z,95147.12
2018-05-27T06:33:20.253Z,95148.73
2018-05-27T06:35:47.801Z,95149.09
2018-05-27T06:38:15.364Z,95143.03
2018-05-27T06:40:42.871Z,95147.48
2018-05-27T06:43:10.423Z,95144.38
2018-05-27T06:45:37.939Z,95146.28
2018-05-27T06:48:05.440Z,95138.84
2018-05-27T06:50:32.995Z,95137.94
2018-05-27T06:53:00.503Z,95137.27
2018-05-27T06:55:28.016Z,95148.73
2018-05-27T06:57:55.550Z,95154.95
2018-05-27T07:00:23.113Z,95151.11
2018-05-27T07:02:50.643Z,95152.73
2018-05-27T07:05:18.169Z,95153.03
2018-05-27T07:07:45.725Z,95154.74
2018-05-27T07:10:13.222Z,95157.40
2018-05-27T07:12:40.735Z,95154.38
2018-05-27T07:15:08.255Z,95156.98
2018-05-27T07:17:35.779Z,95153.25
2018-05-27T07:20:03.317Z,95151.49
2018-05-27T07:22:30.816Z,95155.42
2018-05-27T07:24:58.343Z,95153.01
2018-05-27T07:27:25.904Z,95156.62
2018-05-27T07:29:53.419Z,95152.65
2018-05-27T07:32:20.943Z,95157.75
2018-05-27T07:34:48.458Z,95160.25
2018-05-27T07:37:16.025Z,95160.45
2018-05-27T07:39:43.623Z,95169.19
2018-05-27T07:42:11.157Z,95171.27
2018-05-27T07:44:38.658Z,95173.89
2018-05-27T07:47:06.172Z,95173.91
2018-05-27T07:49:33.700Z,95178.88
2018-05-27T07:52:01.229Z,95168.84
2018-05-27T07:54:28.738Z,95176.53
2018-05-27T07:56:56.361Z,95176.27
2018-05-27T07:59:23.872Z,95184.47
2018-05-27T08:01:51.437Z,95183.02
2018-05-27T08:04:18.960Z,95186.70
2018-05-27T08:06:46.603Z,95190.77
2018-05-27T08:09:14.102Z,95191.82
2018-05-27T08:11:41.631Z,95188.98
2018-05-27T08:14:09.167Z,95187.88
2018-05-27T08:16:36.788Z,95194.09
2018-05-27T08:19:04.291Z,95195.56
2018-05-27T08:21:31.816Z,95189.70
2018-05-27T08:23:59.330Z,95185.50
2018-05-27T08:26:26.915Z,95184.27
2018-05-27T08:28:54.432Z,95186.52
2018-05-27T08:31:22.727Z,95185.34
2018-05-27T08:33:50.251Z,95179.03
2018-05-27T08:36:17.771Z,95176.59
2018-05-27T08:38:45.278Z,95169.25
2018-05-27T08:41:12.796Z,95166.89
2018-05-27T08:43:40.311Z,95170.94
2018-05-27T08:46:07.834Z,95177.69
2018-05-27T08:48:35.359Z,95183.21
2018-05-27T08:51:02.924Z,95184.48
2018-05-27T08:53:30.483Z,95181.44
2018-05-27T08:55:58.036Z,95188.52
2018-05-27T08:58:25.576Z,95184.41
2018-05-27T09:00:53.102Z,95189.25
2018-05-27T09:03:20.620Z,95183.61
2018-05-27T09:05:48.137Z,95185.25
2018-05-27T09:08:15.658Z,95171.50
2018-05-27T09:10:43.273Z,95173.47
2018-05-27T09:13:10.816Z,95181.53
2018-05-27T09:15:38.348Z,95182.63
2018-05-27T09:18:05.907Z,95176.55
2018-05-27T09:20:33.446Z,95169.99
2018-05-27T09:23:00.989Z,95160.77
2018-05-27T09:25:28.518Z,95167.47
2018-05-27T09:27:56.048Z,95158.05
2018-05-27T09:30:23.625Z,95168.95
2018-05-27T09:32:51.150Z,95164.59
2018-05-27T09:35:18.682Z,95169.34
2018-05-27T09:37:46.264Z,95165.05
2018-05-27T09:40:13.810Z,95159.88
2018-05-27T09:42:41.370Z,95164.94
2018-05-27T09:45:08.969Z,95163.42
2018-05-27T09:47:36.500Z,95164.78
2018-05-27T09:50:04.023Z,95172.27
2018-05-27T09:52:31.648Z,95167.97
2018-05-27T09:54:59.201Z,95169.06
2018-05-27T09:57:26.725Z,95158.73
2018-05-27T09:59:54.288Z,95163.98
2018-05-27T10:02:21.840Z,95165.25
2018-05-27T10:04:49.560Z,95163.88
2018-05-27T10:07:17.072Z,95160.53
2018-05-27T10:09:44.608Z,95162.78
2018-05-27T10:12:12.175Z,95159.95
2018-05-27T10:14:39.694Z,95155.94
2018-05-27T10:17:08.078Z,95162.16
2018-05-27T10:19:35.619Z,95158.72
2018-05-27T10:22:03.167Z,95152.86
2018-05-27T10:24:30.721Z,95151.96
2018-05-27T10:26:58.275Z,95147.01
2018-05-27T10:29:25.857Z,95150.15
2018-05-27T10:31:53.371Z,95147.55
2018-05-27T10:34:20.879Z,95151.22
2018-05-27T10:36:48.497Z,95155.38
2018-05-27T10:39:16.049Z,95146.19
2018-05-27T10:41:43.555Z,95152.83
2018-05-27T10:44:11.103Z,95152.30
2018-05-27T10:46:38.615Z,95142.34
2018-05-27T10:49:06.123Z,95139.78
2018-05-27T10:51:33.637Z,95144.26
2018-05-27T10:54:01.201Z,95141.39
2018-05-27T10:56:28.720Z,95148.55
2018-05-27T10:58:56.224Z,95149.14
2018-05-27T11:01:24.543Z,95144.30
2018-05-27T11:03:52.051Z,95148.02
2018-05-27T11:06:19.691Z,95148.49
2018-05-27T11:08:47.204Z,95144.92
2018-05-27T11:11:14.718Z,95134.52
2018-05-27T11:13:42.236Z,95130.09
2018-05-27T11:16:09.767Z,95122.95
2018-05-27T11:18:37.309Z,95126.02
2018-05-27T11:21:04.838Z,95125.78
2018-05-27T11:23:32.377Z,95130.39
2018-05-27T11:25:59.883Z,95121.56
2018-05-27T11:28:27.414Z,95122.97
2018-05-27T11:30:55.213Z,95130.05
2018-05-27T11:33:22.708Z,95123.03
2018-05-27T11:35:50.259Z,95121.55
2018-05-27T11:38:17.785Z,95116.98
2018-05-27T11:40:45.367Z,95114.56
2018-05-27T11:43:12.874Z,95112.58
2018-05-27T11:45:40.380Z,95108.34
2018-05-27T11:48:07.893Z,95109.16
2018-05-27T11:50:35.404Z,95101.03
2018-05-27T11:53:02.953Z,95092.84
2018-05-27T11:55:30.471Z,95093.98
2018-05-27T11:57:58.076Z,95094.42
2018-05-27T12:00:25.610Z,95096.55
2018-05-27T12:02:53.155Z,95090.53
2018-05-27T12:05:20.690Z,95087.11
2018-05-27T12:07:48.209Z,95088.69
2018-05-27T12:10:15.726Z,95083.70
2018-05-27T12:12:43.271Z,95082.95
2018-05-27T12:15:10.826Z,95077.67
2018-05-27T12:17:38.419Z,95069.69
2018-05-27T12:20:05.970Z,95073.20
2018-05-27T12:22:33.494Z,95068.50
2018-05-27T12:25:01.067Z,95067.89
2018-05-27T12:27:28.585Z,95061.77
2018-05-27T12:29:56.141Z,95061.22
2018-05-27T12:32:23.708Z,95051.95
2018-05-27T12:34:51.218Z,95052.39
2018-05-27T12:37:18.722Z,95045.53
2018-05-27T12:39:46.270Z,95042.58
2018-05-27T12:42:13.820Z,95047.77
2018-05-27T12:44:41.356Z,95040.84
2018-05-27T12:47:08.866Z,95045.46
2018-05-27T12:49:36.440Z,95040.98
2018-05-27T12:52:03.951Z,95033.47
2018-05-27T12:54:31.502Z,95032.48
2018-05-27T12:56:59.130Z,95027.25
2018-05-27T12:59:26.621Z,95017.02
2018-05-27T13:01:54.147Z,95000.48
2018-05-27T13:04:21.745Z,95011.39
2018-05-27T13:06:49.265Z,95002.48
2018-05-27T13:09:16.788Z,95002.93
2018-05-27T13:11:44.384Z,95001.63
2018-05-27T13:14:11.960Z,95003.69
2018-05-27T13:16:39.633Z,94997.20
2018-05-27T13:19:07.760Z,94995.38
2018-05-27T13:21:35.354Z,94992.03
2018-05-27T13:24:02.884Z,94992.47
2018-05-27T13:26:30.412Z,94991.66
2018-05-27T13:28:58.745Z,95006.33
2018-05-27T13:31:26.320Z,95012.04
2018-05-27T13:33:53.935Z,95005.41
2018-05-27T13:36:21.436Z,95007.89
2018-05-27T13:38:48.953Z,94998.42
2018-05-27T13:41:16.490Z,95015.53
2018-05-27T13:43:44.019Z,95014.10
2018-05-27T13:46:11.570Z,95009.52
2018-05-27T13:48:39.146Z,95003.48
2018-05-27T13:51:06.703Z,95007.91
2018-05-27T13:53:34.298Z,95011.15
2018-05-27T13:56:01.877Z,95004.70
2018-05-27T13:58:29.459Z,95009.31
2018-05-27T14:00:57.026Z,95005.34
2018-05-27T14:03:24.600Z,95007.42
2018-05-27T14:05:52.146Z,95011.52
2018-05-27T14:08:19.715Z,95005.09
2018-05-27T14:10:47.255Z,95015.19
2018-05-27T14:13:14.824Z,95015.39
2018-05-27T14:15:42.403Z,95004.72
2018-05-27T14:18:09.934Z,95001.92
2018-05-27T14:20:37.478Z,95003.16
2018-05-27T14:23:05.046Z,94990.58
2018-05-27T14:25:32.555Z,94998.80
2018-05-27T14:28:00.107Z,94998.02
2018-05-27T14:30:27.662Z,94998.55
2018-05-27T14:32:55.228Z,94993.14
2018-05-27T14:35:23.702Z,94993.98
2018-05-27T14:37:52.025Z,94992.30
2018-05-27T14:40:19.536Z,94990.95
2018-05-27T14:42:47.059Z,94992.43
2018-05-27T14:45:14.601Z,94986.78
2018-05-27T14:47:42.112Z,94991.84
2018-05-27T14:50:09.616Z,94990.00
2018-05-27T14:52:37.896Z,94992.11
2018-05-27T14:55:05.429Z,94992.66
2018-05-27T14:57:32.957Z,94984.26
2018-05-27T15:00:00.467Z,94988.84
2018-05-27T15:02:27.991Z,94987.88
2018-05-27T15:04:55.539Z,94985.36
2018-05-27T15:07:23.091Z,94982.08
2018-05-27T15:09:50.624Z,94980.66
2018-05-27T15:12:18.732Z,94984.67
2018-05-27T15:14:46.299Z,94986.33
2018-05-27T15:17:13.815Z,94984.20
2018-05-27T15:19:41.351Z,94992.30
2018-05-27T15:22:08.865Z,94986.08
2018-05-27T15:24:36.403Z,94990.98
2018-05-27T15:27:03.962Z,94986.99
2018-05-27T15:29:31.551Z,94987.56
2018-05-27T15:31:59.093Z,94990.04
2018-05-27T15:34:26.663Z,94988.73
2018-05-27T15:36:54.218Z,94996.93
2018-05-27T15:39:21.715Z,94995.66
2018-05-27T15:41:49.280Z,94998.38
2018-05-27T15:44:16.796Z,94995.86
2018-05-27T15:46:44.396Z,94998.95
2018-05-27T15:49:11.916Z,94998.84
2018-05-27T15:51:39.460Z,94995.75
2018-05-27T15:54:06.970Z,94998.72
2018-05-27T15:56:34.513Z,94996.37
2018-05-27T15:59:02.023Z,94998.50
2018-05-27T16:01:29.610Z,95000.23
2018-05-27T16:03:57.140Z,95003.30
2018-05-27T16:06:24.659Z,95000.33
2018-05-27T16:08:52.469Z,94999.52
2018-05-27T16:11:20.763Z,95007.97
2018-05-27T16:13:48.316Z,95003.35
2018-05-27T16:16:15.815Z,95008.41
2018-05-27T16:18:43.332Z,94999.27
2018-05-27T16:21:10.921Z,94998.13
2018-05-27T16:23:38.481Z,95001.36
2018-05-27T16:26:05.991Z,95001.59
2018-05-27T16:28:33.525Z,95010.27
2018-05-27T16:31:01.103Z,95013.09
2018-05-27T16:33:28.606Z,95012.14
2018-05-27T16:35:56.116Z,95010.04
2018-05-27T16:38:23.982Z,95006.11
2018-05-27T16:40:51.724Z,95006.52
2018-05-27T16:43:19.236Z,95008.50
2018-05-27T16:45:46.830Z,95007.16
2018-05-27T16:48:14.315Z,95011.42
2018-05-27T16:50:41.829Z,95020.11
2018-05-27T16:53:09.501Z,95022.78
2018-05-27T16:55:37.028Z,95022.48
2018-05-27T16:58:05.651Z,95029.07
2018-05-27T17:00:33.264Z,95034.25
2018-05-27T17:03:00.814Z,95035.52
2018-05-27T17:05:30.564Z,95034.94
2018-05-27T17:07:58.100Z,95032.23
2018-05-27T17:10:25.607Z,95035.56
2018-05-27T17:12:53.110Z,95037.70
2018-05-27T17:15:20.667Z,95047.41
2018-05-27T17:17:48.258Z,95044.10
2018-05-27T17:20:15.802Z,95050.41
2018-05-27T17:22:43.305Z,95046.26
2018-05-27T17:25:10.815Z,95051.72
2018-05-27T17:27:38.532Z,95057.27
2018-05-27T17:30:07.865Z,95055.45
2018-05-27T17:32:35.487Z,95057.73
2018-05-27T17:35:03.082Z,95062.36
2018-05-27T17:37:30.705Z,95066.38
2018-05-27T17:39:58.320Z,95065.04
2018-05-27T17:42:25.873Z,95063.95
2018-05-27T17:44:54.263Z,95069.43
2018-05-27T17:47:21.834Z,95075.27
2018-05-27T17:49:49.443Z,95077.50
2018-05-27T17:52:17.015Z,95069.65
2018-05-27T17:54:44.524Z,95072.17
2018-05-27T17:57:12.125Z,95075.14
2018-05-27T17:59:39.668Z,95079.48
2018-05-27T18:02:07.166Z,95076.83
2018-05-27T18:04:34.718Z,95074.42
2018-05-27T18:07:02.319Z,95076.84
2018-05-27T18:09:29.840Z,95081.16
2018-05-27T18:11:58.534Z,95080.82
2018-05-27T18:14:26.158Z,95084.53
2018-05-27T18:16:53.681Z,95089.30
2018-05-27T18:19:21.184Z,95096.79
2018-05-27T18:21:48.730Z,95100.61
2018-05-27T18:24:16.274Z,95096.69
2018-05-27T18:26:43.826Z,95097.34
2018-05-27T18:29:11.412Z,95096.06
2018-05-27T18:31:38.959Z,95094.05
2018-05-27T18:34:06.502Z,95097.16
2018-05-27T18:36:34.521Z,95103.56
2018-05-27T18:39:02.045Z,95097.11
2018-05-27T18:41:29.560Z,95095.14
2018-05-27T18:43:58.317Z,95096.17
2018-05-27T18:46:25.834Z,95089.91
2018-05-27T18:48:53.365Z,95092.05
2018-05-27T18:51:20.882Z,95093.90
2018-05-27T18:53:48.434Z,95090.96
2018-05-27T18:56:15.969Z,95093.54
2018-05-27T18:58:43.498Z,95086.88
2018-05-27T19:01:11.010Z,95089.94
2018-05-27T19:03:38.534Z,95088.78
2018-05-27T19:06:06.061Z,95088.73
2018-05-27T19:08:33.571Z,95097.58
2018-05-27T19:11:01.163Z,95092.75
2018-05-27T19:13:28.691Z,95101.84
2018-05-27T19:15:56.245Z,95103.73
2018-05-27T19:18:23.761Z,95104.02
2018-05-27T19:20:51.263Z,95109.52
2018-05-27T19:23:18.797Z,95104.10
2018-05-27T19:25:46.343Z,95108.01
2018-05-27T19:28:13.856Z,95115.09
2018-05-27T19:30:41.376Z,95116.92
2018-05-27T19:33:08.881Z,95113.26
2018-05-27T19:35:36.449Z,95117.91
2018-05-27T19:38:03.971Z,95115.64
2018-05-27T19:40:31.493Z,95119.73
2018-05-27T19:42:59.013Z,95120.12
2018-05-27T19:45:26.536Z,95122.13
2018-05-27T19:47:54.040Z,95125.13
2018-05-27T19:50:22.428Z,95125.39
2018-05-27T19:52:49.989Z,95125.68
2018-05-27T19:55:18.035Z,95122.31
2018-05-27T19:57:45.612Z,95116.04
2018-05-27T20:00:14.551Z,95121.62
2018-05-27T20:02:42.109Z,95113.42
2018-05-27T20:05:09.626Z,95115.45
2018-05-27T20:07:37.147Z,95114.36
2018-05-27T20:10:04.687Z,95119.73
2018-05-27T20:12:32.238Z,95124.77
2018-05-27T20:14:59.799Z,95126.70
2018-05-27T20:17:27.324Z,95133.18
2018-05-27T20:19:54.879Z,95138.31
2018-05-27T20:22:22.399Z,95134.88
2018-05-27T20:24:49.900Z,95138.20
2018-05-27T20:27:17.479Z,95141.92
2018-05-27T20:29:45.049Z,95145.73
2018-05-27T20:32:13.484Z,95147.83
2018-05-27T20:34:41.047Z,95144.56
2018-05-27T20:37:08.573Z,95146.70
2018-05-27T20:46:21.451Z,95142.47
2018-05-27T20:48:48.972Z,95146.14
2018-05-27T20:51:16.539Z,95144.11
2018-05-27T20:53:44.076Z,95143.58
2018-05-27T20:56:11.591Z,95136.04
2018-05-27T20:58:39.112Z,95145.94
2018-05-27T21:01:06.855Z,95147.65
2018-05-27T21:03:34.386Z,95150.33
2018-05-27T21:06:01.912Z,95151.77
2018-05-27T21:08:29.439Z,95161.70
2018-05-27T21:10:57.282Z,95162.25
2018-05-27T21:13:24.875Z,95165.88
2018-05-27T21:15:52.386Z,95159.05
2018-05-27T21:18:19.977Z,95162.02
2018-05-27T21:20:47.491Z,95156.28
2018-05-27T21:23:15.001Z,95164.17
2018-05-27T21:25:42.514Z,95167.81
2018-05-27T21:28:10.053Z,95164.78
2018-05-27T21:30:37.559Z,95164.51
2018-05-27T21:33:05.091Z,95158.14
2018-05-27T21:35:32.611Z,95156.02
2018-05-27T21:38:00.158Z,95159.75
2018-05-27T21:40:27.703Z,95156.49
2018-05-27T21:42:55.216Z,95159.28
2018-05-27T21:45:22.776Z,95163.42
2018-05-27T21:47:50.286Z,95164.66
2018-05-27T21:50:17.797Z,95161.97
2018-05-27T21:52:46.608Z,95161.40
2018-05-27T21:55:14.158Z,95163.52
2018-05-27T21:57:41.665Z,95161.19
2018-05-27T22:00:09.240Z,95154.25
2018-05-27T22:02:36.775Z,95154.95
2018-05-27T22:05:04.289Z,95149.84
2018-05-27T22:07:31.801Z,95149.98
2018-05-27T22:09:59.318Z,95150.62
2018-05-27T22:12:26.819Z,95149.19
2018-05-27T22:14:54.358Z,95144.06
2018-05-27T22:17:21.965Z,95138.62
2018-05-27T22:19:49.498Z,95144.81
2018-05-27T22:22:17.043Z,95131.77
2018-05-27T22:24:44.550Z,95137.61
2018-05-27T22:27:12.061Z,95136.52
2018-05-27T22:29:39.589Z,95129.89
2018-05-27T22:32:07.105Z,95127.66
2018-05-27T22:34:34.606Z,95131.12
2018-05-27T22:37:02.110Z,95132.75
2018-05-27T22:39:29.646Z,95132.88
2018-05-27T22:41:57.161Z,95141.03
2018-05-27T22:44:24.718Z,95147.43
2018-05-27T22:46:52.231Z,95140.88
2018-05-27T22:49:19.804Z,95146.36
2018-05-27T22:51:47.318Z,95147.19
2018-05-27T22:54:14.824Z,95151.02
2018-05-27T22:56:42.334Z,95145.14
2018-05-27T22:59:09.838Z,95138.89
2018-05-27T23:01:37.362Z,95139.59
2018-05-27T23:04:04.871Z,95134.36
2018-05-27T23:06:32.380Z,95134.64
2018-05-27T23:08:59.874Z,95129.95
2018-05-27T23:11:27.386Z,95133.59
2018-05-27T23:13:54.886Z,95128.64
2018-05-27T23:16:22.453Z,95127.84
2018-05-27T23:18:50.012Z,95126.50
2018-05-27T23:21:17.608Z,95121.45
2018-05-27T23:23:45.200Z,95128.03
2018-05-27T23:26:12.783Z,95128.64
2018-05-27T23:28:40.316Z,95124.48
2018-05-27T23:31:07.855Z,95116.19
2018-05-27T23:33:35.373Z,95109.64
2018-05-27T23:36:02.923Z,95106.43
2018-05-27T23:38:30.492Z,95104.95
2018-05-27T23:40:58.013Z,95103.86
2018-05-27T23:43:25.748Z,95103.05
2018-05-27T23:45:53.318Z,95099.41
2018-05-27T23:48:20.890Z,95099.20
2018-05-27T23:50:48.390Z,95102.47
2018-05-27T23:53:15.903Z,95102.27
2018-05-27T23:55:43.466Z,95103.48
2018-05-27T23:58:10.994Z,95101.77
